Home > Products > Valid Products > TAF

000
FTUS43 KDLH 190800 AAA
TAFHYR
TAF AMD
KHYR 190802Z 1908/2006 12004KT P6SM -RA BKN060 OVC080
      TEMPO 1908/1911 5SM -RA BR BKN025 OVC040
     FM191100 12012KT 5SM -RA BR OVC025
     FM191400 12012KT 3SM -RA BR OVC015
     FM192000 22008KT P6SM VCSH BKN025
     FM200100 32006KT P6SM BKN015=



000
FTUS43 KDLH 190800 AAA
TAFBRD
TAF AMD
KBRD 190802Z 1908/2006 VRB05KT 4SM RA BR BKN024 OVC035
      TEMPO 1908/1909 5SM -RA BR BKN040
     FM190900 13009KT 5SM -RA BR SCT015 OVC025
     FM191300 15009KT 3SM -DZ BR OVC012
     FM191700 27011KT 5SM -SHRA BKN025
     FM192000 30013G20KT P6SM VCSH BKN025
     FM192200 30014G21KT P6SM SCT025
     FM200200 31008KT P6SM SCT080=



000
FTUS43 KDLH 190800 AAA
TAFDLH
TAF AMD
KDLH 190801Z 1908/2006 10012KT 3SM RA BKN045 OVC060
      TEMPO 1908/1911 5SM -RA BR BKN025 OVC040
     FM191100 10012KT 3SM -RA BR OVC015
     FM191400 12012KT 2SM -RA BR OVC008
     FM192100 32009KT 5SM -SHRA BR BKN012
     FM200000 32012G18KT P6SM VCSH BKN015
     FM200300 32012KT P6SM BKN060=



000
FTUS43 KDLH 190500 RRA
TAFINL
TAF
KINL 190555Z 1906/2006 13011KT P6SM BKN120
     FM191000 12009KT P6SM VCSH OVC050
      TEMPO 1910/1914 5SM -RA BR BKN025 OVC040
     FM191400 12004KT 3SM -RA BR OVC012
     FM192000 30011KT 5SM -RA BR OVC015
     FM200100 29009KT P6SM VCSH OVC020=



000
FTUS43 KDLH 190500 RRA
TAFDLH
TAF
KDLH 190555Z 1906/2006 09010KT P6SM BKN100
     FM190700 07010KT P6SM VCSH BKN070
      TEMPO 1907/1911 5SM -RA BR BKN025 OVC040
     FM191100 10012KT 3SM -RA BR OVC015
     FM191400 12012KT 2SM -RA BR OVC008
     FM192100 32009KT 5SM -SHRA BR BKN012
     FM200000 32012G18KT P6SM VCSH BKN015
     FM200300 32012KT P6SM BKN060=



000
FTUS43 KDLH 190500 RRA
TAFBRD
TAF
KBRD 190555Z 1906/2006 12007KT P6SM -SHRA BKN070 OVC090
      TEMPO 1906/1909 5SM -RA BR BKN040
     FM190900 13009KT 5SM -RA BR SCT015 OVC025
     FM191300 15009KT 3SM -DZ BR OVC012
     FM191700 27011KT 5SM -SHRA BKN025
     FM192000 30013G20KT P6SM VCSH BKN025
     FM192200 30014G21KT P6SM SCT025
     FM200200 31008KT P6SM SCT080=



000
FTUS43 KDLH 190500 RRA
TAFHYR
TAF
KHYR 190555Z 1906/2006 VRB04KT P6SM VCSH BKN080
      TEMPO 1907/1911 5SM -RA BR BKN025 OVC040
     FM191100 12012KT 5SM -RA BR OVC025
     FM191400 12012KT 3SM -RA BR OVC015
     FM192000 22008KT P6SM VCSH BKN025
     FM200100 32006KT P6SM BKN015=



000
FTUS43 KDLH 190500 RRA
TAFHYR
TAF
KHYR 190555Z 1906/2006 VRB04KT P6SM VCSH BKN080
      TEMPO 1907/1911 5SM -RA BR BKN025 OVC040
     FM191100 12012KT 5SM -RA BR OVC025
     FM191400 12012KT 3SM -RA BR OVC015
     FM192000 22008KT P6SM VCSH BKN025
     FM200100 32006KT P6SM BKN015=



000
FTUS43 KDLH 190500 RRA
TAFDLH
TAF
KDLH 190555Z 1906/2006 09010KT P6SM BKN100
     FM190700 07010KT P6SM VCSH BKN070
      TEMPO 1907/1911 5SM -RA BR BKN025 OVC040
     FM191100 10012KT 3SM -RA BR OVC015
     FM191400 12012KT 2SM -RA BR OVC008
     FM192100 32009KT 5SM -SHRA BR BKN012
     FM200000 32012G18KT P6SM VCSH BKN015
     FM200300 32012KT P6SM BKN060=



000
FTUS43 KDLH 190500 RRA
TAFBRD
TAF
KBRD 190555Z 1906/2006 12007KT P6SM -SHRA BKN070 OVC090
      TEMPO 1906/1909 5SM -RA BR BKN040
     FM190900 13009KT 5SM -RA BR SCT015 OVC025
     FM191300 15009KT 3SM -DZ BR OVC012
     FM191700 27011KT 5SM -SHRA BKN025
     FM192000 30013G20KT P6SM VCSH BKN025
     FM192200 30014G21KT P6SM SCT025
     FM200200 31008KT P6SM SCT080=



000
FTUS43 KDLH 190300 AAA
TAFBRD
TAF AMD
KBRD 190327Z 1903/1924 09008KT P6SM SCT040 OVC070
      TEMPO 1903/1907 5SM -RA BR BKN040
     FM190700 12011KT 4SM -RA BR SCT015 OVC025
     FM191000 14012KT 2SM -DZ BR OVC008
     FM191800 30008KT P6SM SCT012=



000
FTUS43 KDLH 190100 AAA
TAFHYR
TAF AMD
KHYR 190106Z 1901/1924 04006KT P6SM SKC
     FM190500 15012KT P6SM OVC070
     FM190900 09007KT P6SM -RA SCT015 OVC040
     FM191200 16008KT 5SM -RA BR OVC025
     FM191600 17008KT 5SM -RA BR OVC015
     FM192000 20006KT P6SM BKN015=



000
FTUS43 KDLH 190000 AAA
TAFINL
TAF AMD
KINL 190050Z 1901/1924 14010KT P6SM SKC
     FM190200 13008KT P6SM BKN150
     FM191100 12007KT P6SM -RA SCT015 OVC050
     FM191400 12004KT 5SM -RA OVC012
     FM191800 20005KT 6SM -RA BR OVC012=



000
FTUS43 KDLH 190000 AAA
TAFINL
TAF AMD
KINL 190050Z 1901/1924 14010KT P6SM SKC
     FM190200 13008KT P6SM BKN150
     FM191100 12007KT P6SM -RA SCT015 OVC050
     FM191400 12004KT 5SM -RA OVC012
     FM191800 20005KT 6SM -RA BR OVC012=



000
FTUS43 KDLH 182300 RRA
TAFBRD
TAF
KBRD 182350Z 1900/1924 09008KT P6SM SKC
     FM190400 10008KT P6SM SCT035 OVC060
     FM190700 12011KT 4SM -RA BR SCT015 OVC025
     FM191000 14012KT 2SM -DZ BR OVC008
     FM191800 30008KT P6SM SCT012=



000
FTUS43 KDLH 182300 RRA
TAFHYR
TAF
KHYR 182350Z 1900/1924 04014KT P6SM SKC
     FM190500 15012KT P6SM OVC070
     FM190900 09007KT P6SM -RA SCT015 OVC040
     FM191200 16008KT 5SM -RA BR OVC025
     FM191600 17008KT 5SM -RA BR OVC015
     FM192000 20006KT P6SM BKN015=



000
FTUS43 KDLH 182300 RRA
TAFDLH
TAF
KDLH 182350Z 1900/1924 08014G22KT P6SM BKN200
     FM190200 08012KT P6SM BKN100
     FM190700 08010KT 5SM -RA BR SCT015 OVC050
     FM191000 08011KT 3SM -RA BR OVC008
     FM191500 12006KT 4SM -DZ BR OVC008
     FM192200 VRB03KT P6SM SCT012 OVC060=



000
FTUS43 KDLH 182300 RRA
TAFHYR
TAF
KHYR 182350Z 1900/1924 04014KT P6SM SKC
     FM190500 15012KT P6SM OVC070
     FM190900 09007KT P6SM -RA SCT015 OVC040
     FM191200 16008KT 5SM -RA BR OVC025
     FM191600 17008KT 5SM -RA BR OVC015
     FM192000 20006KT P6SM BKN015=



000
FTUS43 KDLH 182300 RRA
TAFINL
TAF
KINL 182350Z 1900/1924 14012G24KT P6SM SKC
     FM190200 13008KT P6SM BKN150
     FM191100 12007KT P6SM -RA SCT015 OVC050
     FM191400 12004KT 5SM -RA OVC012
     FM191800 20005KT 6SM -RA BR OVC012=



000
FTUS43 KDLH 182300 RRA
TAFINL
TAF
KINL 182350Z 1900/1924 14012G24KT P6SM SKC
     FM190200 13008KT P6SM BKN150
     FM191100 12007KT P6SM -RA SCT015 OVC050
     FM191400 12004KT 5SM -RA OVC012
     FM191800 20005KT 6SM -RA BR OVC012=



000
FTUS43 KDLH 182300 RRA
TAFBRD
TAF
KBRD 182350Z 1900/1924 09008KT P6SM SKC
     FM190400 10008KT P6SM SCT035 OVC060
     FM190700 12011KT 4SM -RA BR SCT015 OVC025
     FM191000 14012KT 2SM -DZ BR OVC008
     FM191800 30008KT P6SM SCT012=



000
FTUS43 KDLH 182300 RRA
TAFDLH
TAF
KDLH 182350Z 1900/1924 08014G22KT P6SM BKN200
     FM190200 08012KT P6SM BKN100
     FM190700 08010KT 5SM -RA BR SCT015 OVC050
     FM191000 08011KT 3SM -RA BR OVC008
     FM191500 12006KT 4SM -DZ BR OVC008
     FM192200 VRB03KT P6SM SCT012 OVC060=



000
FTUS43 KDLH 182300 AAC
TAFHYR
TAF AMD
KHYR 182303Z 1823/1918 03012KT P6SM SCT200
     FM190400 13008KT P6SM BKN150
     FM190900 09007KT P6SM -RA SCT015 OVC040
     FM191200 16008KT 5SM -RA BR OVC025
     FM191600 17008KT 5SM -RA BR OVC015=



000
FTUS43 KDLH 182100 AAA
TAFINL
TAF AMD
KINL 182100Z 1821/1918 14011G18KT P6SM SCT200
     FM190200 14008KT P6SM BKN150
     FM191000 14007KT P6SM -RA SCT015 OVC050
     FM191300 15004KT 5SM -RA OVC015
     FM191700 24007KT 4SM -RA BR OVC009=



000
FTUS43 KDLH 182000 AAB
TAFHYR
TAF AMD
KHYR 182055Z 1821/1918 10010G17KT P6SM SCT200
     FM190400 13008KT P6SM BKN150
     FM190900 09007KT P6SM -RA SCT015 OVC040
     FM191200 16008KT 5SM -RA BR OVC025
     FM191600 17008KT 5SM -RA BR OVC015=



000
FTUS43 KDLH 182000 AAA
TAFBRD
TAF AMD
KBRD 182054Z 1821/1918 12011G17KT P6SM FEW200
     FM190100 08009KT P6SM OVC120
     FM190500 09006KT P6SM SCT035 OVC060
     FM190800 10007KT 4SM -RA BR SCT015 OVC025
     FM191400 VRB04KT 4SM -DZ BR OVC009
     FM191700 30008KT P6SM BKN010=



000
FTUS43 KDLH 182000 AAA
TAFBRD
TAF AMD
KBRD 182054Z 1821/1918 12011G17KT P6SM FEW200
     FM190100 08009KT P6SM OVC120
     FM190500 09006KT P6SM SCT035 OVC060
     FM190800 10007KT 4SM -RA BR SCT015 OVC025
     FM191400 VRB04KT 4SM -DZ BR OVC009
     FM191700 30008KT P6SM BKN010=



000
FTUS43 KDLH 181900 AAA
TAFHYR
TAF AMD
KHYR 181915Z 1819/1918 13010G17KT P6SM SCT200
     FM190400 13008KT P6SM BKN150
     FM190900 09007KT P6SM -RA SCT015 OVC040
     FM191200 16008KT 5SM -RA BR OVC025
     FM191600 17008KT 5SM -RA BR OVC015=



000
FTUS43 KDLH 181700
TAFBRD
TAF
KBRD 181734Z 1818/1918 10009KT P6SM FEW200
     FM190100 08009KT P6SM OVC120
     FM190500 09006KT P6SM SCT035 OVC060
     FM190800 10007KT 4SM -RA BR SCT015 OVC025
     FM191400 VRB04KT 4SM -DZ BR OVC009
     FM191700 30008KT P6SM BKN010=



000
FTUS43 KDLH 181700
TAFINL
TAF
KINL 181734Z 1818/1918 11011G18KT P6SM SKC
     FM190200 14008KT P6SM BKN150
     FM191000 14007KT P6SM -RA SCT015 OVC050
     FM191300 15004KT 5SM -RA OVC015
     FM191700 24007KT 4SM -RA BR OVC009=



000
FTUS43 KDLH 181700
TAFDLH
TAF
KDLH 181734Z 1818/1918 08017G25KT P6SM SCT200
     FM190400 09015G22KT P6SM BKN100
     FM190900 11011KT 5SM -RA BR SCT015 OVC050
     FM191200 12010KT 3SM -RA BR OVC012
     FM191600 25006KT 4SM -DZ BR OVC008=



000
FTUS43 KDLH 181700
TAFHYR
TAF
KHYR 181734Z 1818/1918 08010G17KT P6SM FEW200
     FM190400 13008KT P6SM BKN150
     FM190900 09007KT P6SM -RA SCT015 OVC040
     FM191200 16008KT 5SM -RA BR OVC025
     FM191600 17008KT 5SM -RA BR OVC015=



000
FTUS43 KDLH 181700
TAFHYR
TAF
KHYR 181734Z 1818/1918 08010G17KT P6SM FEW200
     FM190400 13008KT P6SM BKN150
     FM190900 09007KT P6SM -RA SCT015 OVC040
     FM191200 16008KT 5SM -RA BR OVC025
     FM191600 17008KT 5SM -RA BR OVC015=



000
FTUS43 KDLH 181700
TAFDLH
TAF
KDLH 181734Z 1818/1918 08017G25KT P6SM SCT200
     FM190400 09015G22KT P6SM BKN100
     FM190900 11011KT 5SM -RA BR SCT015 OVC050
     FM191200 12010KT 3SM -RA BR OVC012
     FM191600 25006KT 4SM -DZ BR OVC008=



000
FTUS43 KDLH 181700
TAFBRD
TAF
KBRD 181734Z 1818/1918 10009KT P6SM FEW200
     FM190100 08009KT P6SM OVC120
     FM190500 09006KT P6SM SCT035 OVC060
     FM190800 10007KT 4SM -RA BR SCT015 OVC025
     FM191400 VRB04KT 4SM -DZ BR OVC009
     FM191700 30008KT P6SM BKN010=



000
FTUS43 KDLH 181700
TAFINL
TAF
KINL 181734Z 1818/1918 11011G18KT P6SM SKC
     FM190200 14008KT P6SM BKN150
     FM191000 14007KT P6SM -RA SCT015 OVC050
     FM191300 15004KT 5SM -RA OVC015
     FM191700 24007KT 4SM -RA BR OVC009=



000
FTUS43 KDLH 181400 AAA
TAFINL
TAF AMD
KINL 181411Z 1814/1912 12011KT P6SM SKC
     FM190100 14009KT P6SM BKN150
     FM191000 14007KT P6SM SCT015 OVC050=



000
FTUS43 KDLH 181300 AAA
TAFDLH
TAF AMD
KDLH 181308Z 1813/1912 10014G24KT P6SM SKC
     FM190200 10013KT P6SM BKN100
     FM190800 11011KT 5SM -RA SCT015 OVC050=



000
FTUS43 KDLH 181300 AAA
TAFHYR
TAF AMD
KHYR 181308Z 1813/1912 07011G16KT P6SM SKC
     FM190200 13010KT P6SM BKN150
     FM190800 09007KT P6SM SCT015 BKN025=



000
FTUS43 KDLH 181100
TAFHYR
TAF
KHYR 181138Z 1812/1912 05006KT P6SM SKC
     FM190200 13010KT P6SM BKN150
     FM190800 09007KT P6SM SCT015 BKN025=



000
FTUS43 KDLH 181100
TAFBRD
TAF
KBRD 181138Z 1812/1912 05008KT P6SM SKC
     FM190100 08010KT P6SM OVC080
     FM190400 09008KT 5SM -RA BR SCT035 OVC070
     FM190600 09007KT 4SM -RA BR SCT015 BKN025=



000
FTUS43 KDLH 181100
TAFDLH
TAF
KDLH 181138Z 1812/1912 09011G17KT P6SM SKC
     FM181500 10014G20KT P6SM SKC
     FM190200 10010KT P6SM BKN100
     FM190800 11011KT 5SM -RA SCT015 OVC050=



000
FTUS43 KDLH 181100
TAFINL
TAF
KINL 181138Z 1812/1912 05006KT P6SM SKC
     FM181500 12011KT P6SM SKC
     FM190100 14009KT P6SM BKN150
     FM191000 14007KT P6SM SCT015 OVC050=



000
FTUS43 KDLH 180800 AAA
TAFDLH
TAF AMD
KDLH 180830Z 1809/1906 05012KT P6SM SKC
     FM181000 08012KT P6SM SKC
     FM181500 10014G20KT P6SM SKC
     FM190200 10010KT P6SM BKN100=



000
FTUS43 KDLH 180600 AAA
TAFDLH
TAF AMD
KDLH 180630Z 1807/1906 01012G21KT P6SM SKC
     FM181000 08012KT P6SM SKC
     FM181500 10014G20KT P6SM SKC
     FM190200 10010KT P6SM BKN100=



000
FTUS43 KDLH 180600 AAA
TAFDLH
TAF AMD
KDLH 180630Z 1807/1906 01012G21KT P6SM SKC
     FM181000 08012KT P6SM SKC
     FM181500 10014G20KT P6SM SKC
     FM190200 10010KT P6SM BKN100=



000
FTUS43 KDLH 180500
TAFINL
TAF
KINL 180535Z 1806/1906 05007KT P6SM SKC
     FM181500 12011KT P6SM SKC
     FM190100 14009KT P6SM BKN150=



000
FTUS43 KDLH 180500
TAFBRD
TAF
KBRD 180535Z 1806/1906 04008KT P6SM SKC
     FM181400 09011KT P6SM SKC
     FM190100 08010KT P6SM OVC080
     FM190400 09008KT 5SM -RA BR SCT035 OVC070=



000
FTUS43 KDLH 180500
TAFHYR
TAF
KHYR 180535Z 1806/1906 VRB03KT P6SM SKC
     FM180700 03008KT P6SM SKC
     FM190200 13010KT P6SM BKN150=



000
FTUS43 KDLH 180500
TAFHYR
TAF
KHYR 180535Z 1806/1906 VRB03KT P6SM SKC
     FM180700 03008KT P6SM SKC
     FM190200 13010KT P6SM BKN150=



000
FTUS43 KDLH 180500
TAFINL
TAF
KINL 180535Z 1806/1906 05007KT P6SM SKC
     FM181500 12011KT P6SM SKC
     FM190100 14009KT P6SM BKN150=



000
FTUS43 KDLH 180500
TAFDLH
TAF
KDLH 180535Z 1806/1906 02011KT P6SM SKC
     FM181000 08012KT P6SM SKC
     FM181500 10014G20KT P6SM SKC
     FM190200 10010KT P6SM BKN100=



000
FTUS43 KDLH 180500
TAFBRD
TAF
KBRD 180535Z 1806/1906 04008KT P6SM SKC
     FM181400 09011KT P6SM SKC
     FM190100 08010KT P6SM OVC080
     FM190400 09008KT 5SM -RA BR SCT035 OVC070=



000
FTUS43 KDLH 180500
TAFDLH
TAF
KDLH 180535Z 1806/1906 02011KT P6SM SKC
     FM181000 08012KT P6SM SKC
     FM181500 10014G20KT P6SM SKC
     FM190200 10010KT P6SM BKN100=



000
FTUS43 KDLH 180500 AAA
TAFDLH
TAF AMD
KDLH 180501Z 1805/1824 36011KT P6SM SKC
     FM180800 08010KT P6SM SKC
     FM181400 08014G20KT P6SM SKC=



000
FTUS43 KDLH 180500 AAA
TAFDLH
TAF AMD
KDLH 180501Z 1805/1824 36011KT P6SM SKC
     FM180800 08010KT P6SM SKC
     FM181400 08014G20KT P6SM SKC=



000
FTUS43 KDLH 180200 AAB
TAFINL
TAF AMD
KINL 180208Z 1802/1824 01012G18KT P6SM SKC
     FM180400 03007KT P6SM SKC
     FM181500 12011KT P6SM SKC=



000
FTUS43 KDLH 180100 AAA
TAFINL
TAF AMD
KINL 180130Z 1802/1824 34012G18KT P6SM SKC
     FM180300 03007KT P6SM SKC
     FM181500 12011KT P6SM SKC=



000
FTUS43 KDLH 172300 RRA
TAFINL
TAF
KINL 172344Z 1800/1824 32016G28KT P6SM SKC
     FM180100 34010KT P6SM SKC
     FM180300 03007KT P6SM SKC
     FM181500 12011KT P6SM SKC=



000
FTUS43 KDLH 172300 RRA
TAFBRD
TAF
KBRD 172344Z 1800/1824 27010KT P6SM SKC
     FM180300 30010KT P6SM SKC
     FM180700 06008KT P6SM SKC
     FM181400 10011KT P6SM SKC=



000
FTUS43 KDLH 172300 RRA
TAFHYR
TAF
KHYR 172344Z 1800/1824 25008KT P6SM SKC
     FM180500 30010KT P6SM SKC
     FM180700 06008KT P6SM SKC=



000
FTUS43 KDLH 172300 RRA
TAFDLH
TAF
KDLH 172344Z 1800/1824 28013G20KT P6SM SKC
     FM180100 29012KT P6SM SKC
     FM180300 33012KT P6SM SKC
     FM180800 08010KT P6SM SKC
     FM181400 08014G20KT P6SM SKC=



000
FTUS43 KDLH 172200 AAA
TAFINL
TAF AMD
KINL 172235Z 1723/1818 30018G30KT P6SM SKC
     FM180100 35008KT P6SM SKC
     FM180300 VRB04KT P6SM SKC
     FM181300 12008KT P6SM SKC=



000
FTUS43 KDLH 171900 AAA
TAFDLH
TAF AMD
KDLH 171900Z 1719/1818 29009G15KT P6SM SKC
     FM180300 04007KT P6SM SKC
     FM180900 07009KT P6SM SKC
     FM181400 09012KT P6SM SKC=



000
FTUS43 KDLH 171900 AAA
TAFDLH
TAF AMD
KDLH 171900Z 1719/1818 29009G15KT P6SM SKC
     FM180300 04007KT P6SM SKC
     FM180900 07009KT P6SM SKC
     FM181400 09012KT P6SM SKC=



000
FTUS43 KDLH 171700
TAFINL
TAF
KINL 171726Z 1718/1818 25016G24KT P6SM SKC
     FM172000 28017G24KT P6SM SKC
     FM180100 35008KT P6SM SKC
     FM180300 VRB04KT P6SM SKC
     FM181300 12008KT P6SM SKC=



000
FTUS43 KDLH 171700
TAFBRD
TAF
KBRD 171726Z 1718/1818 26006KT P6SM SKC
     FM172100 31006KT P6SM SKC
     FM180300 03005KT P6SM SKC
     FM180900 08009KT P6SM SKC=



000
FTUS43 KDLH 171700
TAFHYR
TAF
KHYR 171726Z 1718/1818 VRB06KT P6SM SKC
     FM171900 27006KT P6SM SKC
     FM180300 36003KT P6SM SKC
     FM180600 04009KT P6SM SKC
     FM181200 08008KT P6SM SKC=



000
FTUS43 KDLH 171700
TAFDLH
TAF
KDLH 171726Z 1718/1818 VRB05KT P6SM SKC
     FM172100 28008KT P6SM SKC
     FM180300 04007KT P6SM SKC
     FM180900 07009KT P6SM SKC
     FM181400 09012KT P6SM SKC=



000
FTUS43 KDLH 171700
TAFHYR
TAF
KHYR 171726Z 1718/1818 VRB06KT P6SM SKC
     FM171900 27006KT P6SM SKC
     FM180300 36003KT P6SM SKC
     FM180600 04009KT P6SM SKC
     FM181200 08008KT P6SM SKC=



000
FTUS43 KDLH 171700
TAFBRD
TAF
KBRD 171726Z 1718/1818 26006KT P6SM SKC
     FM172100 31006KT P6SM SKC
     FM180300 03005KT P6SM SKC
     FM180900 08009KT P6SM SKC=



000
FTUS43 KDLH 171700
TAFINL
TAF
KINL 171726Z 1718/1818 25016G24KT P6SM SKC
     FM172000 28017G24KT P6SM SKC
     FM180100 35008KT P6SM SKC
     FM180300 VRB04KT P6SM SKC
     FM181300 12008KT P6SM SKC=



000
FTUS43 KDLH 171700
TAFDLH
TAF
KDLH 171726Z 1718/1818 VRB05KT P6SM SKC
     FM172100 28008KT P6SM SKC
     FM180300 04007KT P6SM SKC
     FM180900 07009KT P6SM SKC
     FM181400 09012KT P6SM SKC=



000
FTUS43 KDLH 171100 AAA
TAFBRD
TAF AMD
KBRD 171157Z 1712/1812 00000KT P6SM SKC
     FM171800 29009KT P6SM SKC
     FM180100 33003KT P6SM SKC=



000
FTUS43 KDLH 171100 AAA
TAFBRD
TAF AMD
KBRD 171157Z 1712/1812 00000KT P6SM SKC
     FM171800 29009KT P6SM SKC
     FM180100 33003KT P6SM SKC=



000
FTUS43 KDLH 171100
TAFINL
TAF
KINL 171120Z 1712/1812 VRB03KT P6SM SKC
     FM171700 25013G23KT P6SM SKC
     FM172100 29016G30KT P6SM SKC
     FM180100 35010KT P6SM SKC
     FM180600 06004KT P6SM SKC=



000
FTUS43 KDLH 171100
TAFHYR
TAF
KHYR 171120Z 1712/1812 00000KT P6SM SCT060
     FM171800 27008KT P6SM SKC
     FM180100 31003KT P6SM SKC=



000
FTUS43 KDLH 171100
TAFINL
TAF
KINL 171120Z 1712/1812 VRB03KT P6SM SKC
     FM171700 25013G23KT P6SM SKC
     FM172100 29016G30KT P6SM SKC
     FM180100 35010KT P6SM SKC
     FM180600 06004KT P6SM SKC=



000
FTUS43 KDLH 171100
TAFHYR
TAF
KHYR 171120Z 1712/1812 00000KT P6SM SCT060
     FM171800 27008KT P6SM SKC
     FM180100 31003KT P6SM SKC=



000
FTUS43 KDLH 171100
TAFBRD
TAF
KBRD 171120Z 1712/1812 00000KT 1 1/2SM BR FEW001
     FM171300 VRB03KT P6SM SKC
     FM171800 29009KT P6SM SKC
     FM180100 33003KT P6SM SKC=



000
FTUS43 KDLH 171100
TAFDLH
TAF
KDLH 171120Z 1712/1812 VRB05KT P6SM SKC
     FM172100 28010G18KT P6SM SKC
     FM180100 33005KT P6SM SKC
     FM180900 06006KT P6SM SKC=



000
FTUS43 KDLH 171100
TAFDLH
TAF
KDLH 171120Z 1712/1812 VRB05KT P6SM SKC
     FM172100 28010G18KT P6SM SKC
     FM180100 33005KT P6SM SKC
     FM180900 06006KT P6SM SKC=



000
FTUS43 KDLH 171100
TAFBRD
TAF
KBRD 171120Z 1712/1812 00000KT 1 1/2SM BR FEW001
     FM171300 VRB03KT P6SM SKC
     FM171800 29009KT P6SM SKC
     FM180100 33003KT P6SM SKC=



000
FTUS43 KDLH 170500
TAFDLH
TAF
KDLH 170527Z 1706/1806 VRB04KT P6SM SKC
     FM171800 28013G20KT P6SM SKC
     FM180100 33007KT P6SM SKC=



000
FTUS43 KDLH 170500
TAFBRD
TAF
KBRD 170527Z 1706/1806 36003KT P6SM SKC
     FM171800 29010KT P6SM SKC
     FM180100 VRB04KT P6SM SKC=



000
FTUS43 KDLH 170500
TAFINL
TAF
KINL 170527Z 1706/1806 VRB03KT P6SM SKC
     FM171700 29013G25KT P6SM SKC
     FM180000 35010KT P6SM SKC
     FM180300 05004KT P6SM SKC=



000
FTUS43 KDLH 170500
TAFHYR
TAF
KHYR 170527Z 1706/1806 VRB03KT P6SM OVC100
     FM171800 27010KT P6SM SKC
     FM180100 VRB03KT P6SM SKC=



000
FTUS43 KDLH 170500
TAFBRD
TAF
KBRD 170527Z 1706/1806 36003KT P6SM SKC
     FM171800 29010KT P6SM SKC
     FM180100 VRB04KT P6SM SKC=



000
FTUS43 KDLH 170500
TAFDLH
TAF
KDLH 170527Z 1706/1806 VRB04KT P6SM SKC
     FM171800 28013G20KT P6SM SKC
     FM180100 33007KT P6SM SKC=



000
FTUS43 KDLH 170500
TAFINL
TAF
KINL 170527Z 1706/1806 VRB03KT P6SM SKC
     FM171700 29013G25KT P6SM SKC
     FM180000 35010KT P6SM SKC
     FM180300 05004KT P6SM SKC=



000
FTUS43 KDLH 170500
TAFHYR
TAF
KHYR 170527Z 1706/1806 VRB03KT P6SM OVC100
     FM171800 27010KT P6SM SKC
     FM180100 VRB03KT P6SM SKC=



000
FTUS43 KDLH 162300
TAFDLH
TAF
KDLH 162325Z 1700/1724 27007KT P6SM BKN080
     FM170300 31007KT P6SM BKN100
     FM170600 VRB04KT P6SM SKC
     FM171700 27010KT P6SM SKC=



000
FTUS43 KDLH 162300
TAFHYR
TAF
KHYR 162325Z 1700/1724 VRB03KT P6SM OVC080
     FM170300 VRB03KT P6SM BKN100
     FM171800 27010KT P6SM SKC=



000
FTUS43 KDLH 162300
TAFBRD
TAF
KBRD 162325Z 1700/1724 31005KT P6SM BKN060
     FM170200 VRB03KT P6SM SCT250
     FM171600 28010KT P6SM SKC=



000
FTUS43 KDLH 162300
TAFINL
TAF
KINL 162325Z 1700/1724 32007KT P6SM BKN090
     FM170300 VRB03KT P6SM SCT250
     FM171600 27010G25KT P6SM SKC=



000
FTUS43 KDLH 162100 AAA
TAFBRD
TAF AMD
KBRD 162105Z 1621/1718 25005KT P6SM BKN050 BKN090
     FM162300 30005KT P6SM BKN080
     FM170400 33006KT P6SM SCT080
     FM171400 VRB04KT P6SM SCT140=



000
FTUS43 KDLH 162100 AAA
TAFBRD
TAF AMD
KBRD 162105Z 1621/1718 25005KT P6SM BKN050 BKN090
     FM162300 30005KT P6SM BKN080
     FM170400 33006KT P6SM SCT080
     FM171400 VRB04KT P6SM SCT140=



000
FTUS43 KDLH 162100 AAA
TAFDLH
TAF AMD
KDLH 162104Z 1621/1718 23010KT P6SM SCT080 BKN100
     FM162300 26006KT P6SM SCT080 SCT100
     FM170100 32009KT P6SM SCT080
     FM170600 VRB04KT P6SM SCT120=



000
FTUS43 KDLH 162100 AAA
TAFDLH
TAF AMD
KDLH 162104Z 1621/1718 23010KT P6SM SCT080 BKN100
     FM162300 26006KT P6SM SCT080 SCT100
     FM170100 32009KT P6SM SCT080
     FM170600 VRB04KT P6SM SCT120=



000
FTUS43 KDLH 162100 AAB
TAFINL
TAF AMD
KINL 162103Z 1621/1718 33010KT P6SM BKN080
     FM162300 32008KT P6SM BKN080
     FM170300 VRB03KT P6SM SCT080
     FM171400 23010KT P6SM SCT200=



000
FTUS43 KDLH 162100 AAB
TAFINL
TAF AMD
KINL 162103Z 1621/1718 33010KT P6SM BKN080
     FM162300 32008KT P6SM BKN080
     FM170300 VRB03KT P6SM SCT080
     FM171400 23010KT P6SM SCT200=



000
FTUS43 KDLH 161900 AAA
TAFINL
TAF AMD
KINL 161904Z 1619/1718 31011G14KT P6SM BKN060
     FM162300 32008KT P6SM BKN080
     FM170300 VRB03KT P6SM SCT080
     FM171400 23010KT P6SM SCT200=



000
FTUS43 KDLH 161700
TAFHYR
TAF
KHYR 161736Z 1618/1718 20008KT P6SM BKN140
     FM162000 24005KT P6SM BKN100
     FM162300 VRB03KT P6SM VCSH BKN070 BKN100
     FM170300 VRB03KT P6SM SCT080=



000
FTUS43 KDLH 161700
TAFBRD
TAF
KBRD 161736Z 1618/1718 22010KT P6SM SCT060 BKN090
     FM162000 26008KT P6SM SCT080
     FM162300 29005KT P6SM BKN080
     FM170400 33006KT P6SM SCT080
     FM171400 VRB04KT P6SM SCT140=



000
FTUS43 KDLH 161700
TAFDLH
TAF
KDLH 161736Z 1618/1718 21007KT P6SM VCSH OVC070
     FM162100 25009KT P6SM SCT080 SCT100
     FM170100 32005KT P6SM SCT080
     FM170900 VRB04KT P6SM SCT120=



000
FTUS43 KDLH 161700
TAFINL
TAF
KINL 161736Z 1618/1718 26007KT P6SM SCT060 SCT090
     FM162300 32008KT P6SM BKN080
     FM170300 VRB03KT P6SM SCT080
     FM171400 23010KT P6SM SCT200=



000
FTUS43 KDLH 161500 AAA
TAFHYR
TAF AMD
KHYR 161547Z 1616/1712 20008KT P6SM BKN140
     FM162000 24005KT P6SM BKN100
     FM162300 VRB03KT P6SM VCSH BKN070 BKN100
     FM170900 35004KT P6SM BKN090=



000
FTUS43 KDLH 161500 AAA
TAFHYR
TAF AMD
KHYR 161547Z 1616/1712 20008KT P6SM BKN140
     FM162000 24005KT P6SM BKN100
     FM162300 VRB03KT P6SM VCSH BKN070 BKN100
     FM170900 35004KT P6SM BKN090=



000
FTUS43 KDLH 161500 AAA
TAFINL
TAF AMD
KINL 161544Z 1616/1712 22008KT P6SM VCSH OVC050
     FM161800 26008KT P6SM VCSH OVC050
     FM162300 32008KT P6SM BKN080
     FM170400 34004KT P6SM SCT080 SCT150=



000
FTUS43 KDLH 161500 AAA
TAFINL
TAF AMD
KINL 161544Z 1616/1712 22008KT P6SM VCSH OVC050
     FM161800 26008KT P6SM VCSH OVC050
     FM162300 32008KT P6SM BKN080
     FM170400 34004KT P6SM SCT080 SCT150=



000
FTUS43 KDLH 161500 AAA
TAFBRD
TAF AMD
KBRD 161542Z 1616/1712 21010KT P6SM VCSH SCT070 OVC100
     FM162000 26008KT P6SM VCSH BKN060
     FM162300 29005KT P6SM BKN080
     FM170400 32006KT P6SM SCT080=



000
FTUS43 KDLH 161400 AAA
TAFDLH
TAF AMD
KDLH 161423Z 1614/1712 21007KT P6SM VCSH OVC090
     FM162000 24009KT P6SM BKN070 OVC110
     FM170100 32005KT P6SM SKC=



000
FTUS43 KDLH 161400 AAA
TAFDLH
TAF AMD
KDLH 161423Z 1614/1712 21007KT P6SM VCSH OVC090
     FM162000 24009KT P6SM BKN070 OVC110
     FM170100 32005KT P6SM SKC=



000
FTUS43 KDLH 161100
TAFBRD
TAF
KBRD 161120Z 1612/1712 18005KT P6SM OVC070
     FM161700 26007KT P6SM BKN060
     FM162300 32005KT P6SM SCT100=



000
FTUS43 KDLH 161100
TAFBRD
TAF
KBRD 161120Z 1612/1712 18005KT P6SM OVC070
     FM161700 26007KT P6SM BKN060
     FM162300 32005KT P6SM SCT100=



000
FTUS43 KDLH 161100
TAFHYR
TAF
KHYR 161120Z 1612/1712 00000KT P6SM BKN140
     FM161700 23005KT P6SM BKN100=



000
FTUS43 KDLH 161100
TAFINL
TAF
KINL 161120Z 1612/1712 20007KT P6SM BKN120
     FM161600 25008KT P6SM VCSH BKN050
     FM162100 32008KT P6SM SCT100=



000
FTUS43 KDLH 161100
TAFDLH
TAF
KDLH 161120Z 1612/1712 19007KT P6SM BKN120
     FM161700 24010KT P6SM VCSH BKN070
     FM170100 32005KT P6SM SKC=



000
FTUS43 KDLH 161100
TAFDLH
TAF
KDLH 161120Z 1612/1712 19007KT P6SM BKN120
     FM161700 24010KT P6SM VCSH BKN070
     FM170100 32005KT P6SM SKC=



000
FTUS43 KDLH 161100
TAFINL
TAF
KINL 161120Z 1612/1712 20007KT P6SM BKN120
     FM161600 25008KT P6SM VCSH BKN050
     FM162100 32008KT P6SM SCT100=



000
FTUS43 KDLH 161100
TAFHYR
TAF
KHYR 161120Z 1612/1712 00000KT P6SM BKN140
     FM161700 23005KT P6SM BKN100=



    US Dept of Commerce
    National Oceanic and Atmospheric Administration
    National Weather Service
    1325 East West Highway
    Silver Spring, MD 20910
    Page Author: NWS Internet Services Team
Disclaimer
Information Quality
Credits
Glossary
Privacy Policy
Freedom of Information Act (FOIA)
About Us
Career Opportunities